Montpelier, Kentucky
Current Conditions -  °F | °C
As of 5:56 PM on Thursday 18 Dec 2014 (Local Time) from KEKQ Reporting Station
Overcast Overcast  
Wind Chill: 35°   Ceiling: 7000
Heat Index: 35°   Visibility: 9mi
Dew Point: 29°   Wind: 0mph
Humidity: 79%   Direction: NA
Pressure: 30.22"   Gusts: NA
Location:  37.112°N, 85.2724°W
Report Text: KEKQ 182356Z AUTO 00000KT 9SM OVC070 02/M02 A3022 RMK AO2 52001 T00161016 10027 20016 SLP245
Loading
Personal Weather Stations






























Interactive Weather Map New forecast layout! Learn more

10-Day Weather Forecast

Advertisements
Track Severe Weather on mobile